• Join FlightAware (Why Join?)
  • Login
  • US Flag 
04:50AM EDT


 

Airport Tracker/Info


-or-


 

Live Flight TrackerFlight Track Log ✈ VH-JSF ✈ 07-Sep-2013 ✈ YPDN / DRW - YCOO / CDA

Flight Track Log - Related Links

Times and Time Zones

All times are in EDT time to prevent confusion due to time zone crossing. See the VH-JSF flight status page for this flight to view local times or setup timezone preferences in your user account.

Time Position Orientation Groundspeed Altitude Reporting Facility
EDT Latitude Longitude Course Direction KTS MPH feet Rate Location/Type
10:02PM -12.4620 130.9036 151° Southeast  Level FlightAware Approximate
10:03PM -12.4777 130.9126 151° Southeast  Level FlightAware Approximate
10:04PM -12.4935 130.9215 151° Southeast  Level FlightAware Approximate
10:05PM -12.5092 130.9305 151° Southeast  Level FlightAware Approximate
10:06PM -12.5250 130.9395 151° Southeast  Level FlightAware Approximate
10:07PM -12.5407 130.9485 151° Southeast  Level FlightAware Approximate
10:08PM -12.5565 130.9574 151° Southeast  Level FlightAware Approximate
10:09PM -12.5722 130.9664 151° Southeast  Level FlightAware Approximate
10:10PM -12.5880 130.9754 151° Southeast  Level FlightAware Approximate
10:11PM -12.6037 130.9844 151° Southeast  Level FlightAware Approximate
10:12PM -12.6195 130.9934 151° Southeast  Level FlightAware Approximate
10:13PM -12.6352 131.0023 151° Southeast  Level FlightAware Approximate
10:14PM -12.6510 131.0113 151° Southeast  Level FlightAware Approximate
10:15PM -12.6667 131.0203 151° Southeast  Level FlightAware Approximate
10:16PM -12.6825 131.0293 151° Southeast  Level FlightAware Approximate
10:17PM -12.6982 131.0383 151° Southeast  Level FlightAware Approximate
10:18PM -12.7140 131.0473 151° Southeast  Level FlightAware Approximate
10:19PM -12.7297 131.0563 151° Southeast  Level FlightAware Approximate
10:20PM -12.7319 131.0746 205° Southwest  Level Estimated
10:21PM -12.7498 131.0719 188° South  Level FlightAware Approximate
10:22PM -12.7676 131.0692 188° South  Level FlightAware Approximate
10:23PM -12.7854 131.0666 188° South  Level FlightAware Approximate
10:24PM -12.8033 131.0639 188° South  Level FlightAware Approximate
10:25PM -12.8211 131.0612 188° South  Level FlightAware Approximate
10:26PM -12.8389 131.0585 188° South  Level FlightAware Approximate
10:27PM -12.8567 131.0558 188° South  Level FlightAware Approximate
10:28PM -12.8746 131.0531 188° South  Level FlightAware Approximate
10:29PM -12.8924 131.0504 188° South  Level FlightAware Approximate
10:30PM -12.9102 131.0477 188° South  Level FlightAware Approximate
10:31PM -12.9281 131.0450 188° South  Level FlightAware Approximate
10:32PM -12.9459 131.0424 188° South  Level FlightAware Approximate
10:33PM -12.9454 131.0609 59° Northeast  Level Estimated
10:34PM -12.9381 131.0777 66° East  Level FlightAware Approximate
10:35PM -12.9307 131.0946 66° East  Level FlightAware Approximate
10:36PM -12.9234 131.1115 66° East  Level FlightAware Approximate
10:37PM -12.9160 131.1284 66° East  Level FlightAware Approximate
10:38PM -12.9087 131.1453 66° East  Level FlightAware Approximate
10:39PM -12.9014 131.1622 66° East  Level FlightAware Approximate
10:40PM -12.8940 131.1791 66° East  Level FlightAware Approximate
10:41PM -12.8867 131.1960 66° East  Level FlightAware Approximate
10:42PM -12.8793 131.2128 66° East  Level FlightAware Approximate
10:43PM -12.8720 131.2297 66° East  Level FlightAware Approximate
10:44PM -12.8646 131.2466 66° East  Level FlightAware Approximate
10:45PM -12.8573 131.2635 66° East  Level FlightAware Approximate
10:46PM -12.8499 131.2804 66° East  Level FlightAware Approximate
10:47PM -12.8426 131.2973 66° East  Level FlightAware Approximate
10:48PM -12.8352 131.3141 66° East  Level FlightAware Approximate
10:49PM -12.8279 131.3310 66° East  Level FlightAware Approximate
10:50PM -12.8205 131.3479 66° East  Level FlightAware Approximate
10:51PM -12.8131 131.3648 66° East  Level FlightAware Approximate
10:52PM -12.8058 131.3816 66° East  Level FlightAware Approximate
10:53PM -12.7984 131.3985 66° East  Level FlightAware Approximate
10:54PM -12.7911 131.4154 66° East  Level FlightAware Approximate
10:55PM -12.7837 131.4323 66° East  Level FlightAware Approximate
10:56PM -12.7763 131.4491 66° East  Level FlightAware Approximate
10:57PM -12.7690 131.4660 66° East  Level FlightAware Approximate
10:58PM -12.7616 131.4829 66° East  Level FlightAware Approximate
10:59PM -12.7542 131.4997 66° East  Level FlightAware Approximate
11:00PM -12.7469 131.5166 66° East  Level FlightAware Approximate
11:01PM -12.7395 131.5335 66° East  Level FlightAware Approximate
11:02PM -12.7321 131.5503 66° East  Level FlightAware Approximate
11:03PM -12.7248 131.5672 66° East  Level FlightAware Approximate
11:04PM -12.7174 131.5840 66° East  Level FlightAware Approximate
11:05PM -12.7100 131.6009 66° East  Level FlightAware Approximate
11:06PM -12.7027 131.6178 66° East  Level FlightAware Approximate
11:07PM -12.6953 131.6346 66° East  Level FlightAware Approximate
11:08PM -12.6879 131.6515 66° East  Level FlightAware Approximate
11:09PM -12.6805 131.6684 66° East  Level FlightAware Approximate
11:10PM -12.6731 131.6852 66° East  Level FlightAware Approximate
11:11PM -12.6658 131.7021 66° East  Level FlightAware Approximate
11:12PM -12.6731 131.6852 246° West  Level FlightAware Approximate
11:13PM -12.6658 131.7021 66° East  Level FlightAware Approximate
11:14PM -12.6731 131.6852 246° West  Level FlightAware Approximate
11:15PM -12.6667 131.7000 59° Northeast  Level FlightAware Approximate
11:16PM -12.6717 131.7177 59° Northeast  Level Estimated
11:17PM -12.6667 131.7000 59° Northeast  Level FlightAware Approximate
11:18PM -12.6717 131.7177 59° Northeast  Level Estimated
11:19PM -12.6667 131.7000 59° Northeast  Level FlightAware Approximate
11:20PM -12.6717 131.7177 59° Northeast  Level Estimated
11:21PM -12.6667 131.7000 59° Northeast  Level FlightAware Approximate
11:22PM -12.6717 131.7177 59° Northeast  Level Estimated
11:23PM -12.6667 131.7000 59° Northeast  Level FlightAware Approximate
11:24PM -12.6717 131.7177 59° Northeast  Level Estimated
11:25PM -12.6667 131.7000 59° Northeast  Level FlightAware Approximate
11:26PM -12.6717 131.7177 59° Northeast  Level Estimated
11:27PM -12.6667 131.7000 59° Northeast  Level FlightAware Approximate
11:28PM -12.6717 131.7177 59° Northeast  Level Estimated
11:29PM -12.6667 131.7000 59° Northeast  Level FlightAware Approximate
11:30PM -12.6717 131.7177 59° Northeast  Level Estimated
11:31PM -12.6667 131.7000 59° Northeast  Level FlightAware Approximate
11:32PM -12.6717 131.7177 59° Northeast  Level Estimated